Time;durP1;ratioP1;P1;durP2;ratioP2;P2;SDS_P1;SDS_P2;PMS_P1;PMS_P2;Temp;Humidity;BMP_temperature;BMP_pressure;BME280_temperature;BME280_humidity;BME280_pressure;Samples;Min_cycle;Max_cycle;Signal;HPM_P1;HPM_P2
2023/08/09 00:01:32;;;;;;;1.25;1.13;;;;;;;;;;5055792;28;20183;-51
2023/08/09 00:03:58;;;;;;;2.20;1.25;;;;;;;;;;5057193;28;20183;-51
2023/08/09 00:06:24;;;;;;;1.50;1.40;;;;;;;;;;5057113;28;20191;-51
2023/08/09 00:08:50;;;;;;;3.95;1.50;;;;;;;;;;5056159;28;20175;-52
2023/08/09 00:11:16;;;;;;;1.42;1.20;;;;;;;;;;5056933;28;20289;-51
2023/08/09 00:13:42;;;;;;;1.20;1.10;;;;;;;;;;5055301;28;20542;-51
2023/08/09 00:16:09;;;;;;;2.53;1.33;;;;;;;;;;5057191;28;20341;-51
2023/08/09 00:18:35;;;;;;;1.25;1.00;;;;;;;;;;5055796;28;20482;-52
2023/08/09 00:21:01;;;;;;;1.63;1.20;;;;;;;;;;5051786;28;20567;-51
2023/08/09 00:23:28;;;;;;;1.40;1.15;;;;;;;;;;5043743;28;20190;-52
2023/08/09 00:25:54;;;;;;;3.40;1.23;;;;;;;;;;5054988;28;20570;-51
2023/08/09 00:28:20;;;;;;;2.22;1.35;;;;;;;;;;5055737;28;20550;-51
2023/08/09 00:30:46;;;;;;;1.98;1.20;;;;;;;;;;5054642;28;20195;-51
2023/08/09 00:33:12;;;;;;;1.65;1.55;;;;;;;;;;5056088;28;20190;-51
2023/08/09 00:35:39;;;;;;;2.25;1.20;;;;;;;;;;5038619;28;20199;-51
2023/08/09 00:38:05;;;;;;;2.10;1.10;;;;;;;;;;5042148;28;20557;-51
2023/08/09 00:40:31;;;;;;;2.90;1.63;;;;;;;;;;5053869;28;20179;-52
2023/08/09 00:42:57;;;;;;;1.65;1.45;;;;;;;;;;5056269;28;20449;-52
2023/08/09 00:45:23;;;;;;;3.70;1.15;;;;;;;;;;5056433;28;20594;-51
2023/08/09 00:47:49;;;;;;;3.05;1.70;;;;;;;;;;5045931;28;20556;-51
2023/08/09 00:50:15;;;;;;;3.78;1.20;;;;;;;;;;5055299;28;20513;-52
2023/08/09 00:52:41;;;;;;;3.58;1.23;;;;;;;;;;5037451;28;20577;-51
2023/08/09 00:55:08;;;;;;;2.17;1.20;;;;;;;;;;5042464;28;20184;-51
2023/08/09 00:57:34;;;;;;;4.10;1.30;;;;;;;;;;5044786;28;20178;-51
2023/08/09 01:00:00;;;;;;;2.40;1.35;;;;;;;;;;5053458;28;20183;-52
2023/08/09 01:02:26;;;;;;;3.05;1.33;;;;;;;;;;5055737;28;20171;-52
2023/08/09 01:04:52;;;;;;;1.38;1.00;;;;;;;;;;5056116;28;20193;-52
2023/08/09 01:07:24;;;;;;;4.43;1.40;;;;;;;;;;5049629;28;20180;-52
2023/08/09 01:09:50;;;;;;;2.10;1.10;;;;;;;;;;5044277;28;20190;-52
2023/08/09 01:12:23;;;;;;;2.65;1.27;;;;;;;;;;5055663;28;20266;-52
2023/08/09 01:14:51;;;;;;;3.58;1.02;;;;;;;;;;5056220;28;20417;-52
2023/08/09 01:17:18;;;;;;;2.30;1.35;;;;;;;;;;5055314;28;20202;-52
2023/08/09 01:19:44;;;;;;;2.05;1.35;;;;;;;;;;5054180;28;20195;-52
2023/08/09 01:22:16;;;;;;;1.70;1.25;;;;;;;;;;5054745;28;20241;-52
2023/08/09 01:24:42;;;;;;;2.05;1.20;;;;;;;;;;5055491;28;20207;-52
2023/08/09 01:27:08;;;;;;;2.88;1.67;;;;;;;;;;5055781;28;20222;-52
2023/08/09 01:29:34;;;;;;;1.55;1.38;;;;;;;;;;5054792;28;20642;-52
2023/08/09 01:32:00;;;;;;;2.80;1.15;;;;;;;;;;5055329;28;20250;-52
2023/08/09 01:34:26;;;;;;;2.08;1.20;;;;;;;;;;5055463;28;20248;-52
2023/08/09 01:36:52;;;;;;;2.63;1.23;;;;;;;;;;5046109;28;20203;-53
2023/08/09 01:39:23;;;;;;;1.25;1.10;;;;;;;;;;5054183;28;20190;-52
2023/08/09 01:41:50;;;;;;;3.85;1.45;;;;;;;;;;5053075;28;20300;-52
2023/08/09 01:44:17;;;;;;;2.47;1.20;;;;;;;;;;5046836;28;20191;-52
2023/08/09 01:46:43;;;;;;;2.22;1.30;;;;;;;;;;5037196;28;20187;-52
2023/08/09 01:49:13;;;;;;;1.73;1.10;;;;;;;;;;5046690;28;20180;-52
2023/08/09 01:51:39;;;;;;;2.80;1.45;;;;;;;;;;5037331;28;20188;-52
2023/08/09 01:54:06;;;;;;;4.95;1.70;;;;;;;;;;5050218;28;20179;-52
2023/08/09 01:56:32;;;;;;;2.50;1.48;;;;;;;;;;5035530;28;20211;-52
2023/08/09 01:58:59;;;;;;;2.17;1.67;;;;;;;;;;5047557;28;20276;-52
2023/08/09 02:01:25;;;;;;;2.72;1.52;;;;;;;;;;5049753;28;20179;-52
2023/08/09 02:03:50;;;;;;;2.80;1.30;;;;;;;;;;5052624;28;20214;-52
2023/08/09 02:06:16;;;;;;;2.30;1.40;;;;;;;;;;5035470;28;20219;-52
2023/08/09 02:08:43;;;;;;;5.35;1.70;;;;;;;;;;5049273;28;20264;-52
2023/08/09 02:11:09;;;;;;;2.55;1.45;;;;;;;;;;5052476;28;20821;-52
2023/08/09 02:13:35;;;;;;;3.42;1.42;;;;;;;;;;5046448;28;20198;-52
2023/08/09 02:16:05;;;;;;;2.92;1.48;;;;;;;;;;5043007;28;20258;-52
2023/08/09 02:18:32;;;;;;;1.70;1.15;;;;;;;;;;5036548;28;20619;-53
2023/08/09 02:20:59;;;;;;;4.63;1.67;;;;;;;;;;5042886;28;20254;-52
2023/08/09 02:23:25;;;;;;;3.17;1.60;;;;;;;;;;5053009;28;20278;-52
2023/08/09 02:25:53;;;;;;;2.05;1.15;;;;;;;;;;5055008;28;20510;-52
2023/08/09 02:28:19;;;;;;;2.17;1.35;;;;;;;;;;5054115;28;20193;-52
2023/08/09 02:30:45;;;;;;;4.40;1.58;;;;;;;;;;5053531;28;20441;-52
2023/08/09 02:33:11;;;;;;;1.42;1.23;;;;;;;;;;5054109;28;20178;-52
2023/08/09 02:36:07;;;;;;;2.15;1.25;;;;;;;;;;5054583;28;20473;-52
2023/08/09 02:38:33;;;;;;;3.05;1.60;;;;;;;;;;5037335;28;20187;-53
2023/08/09 02:41:04;;;;;;;2.55;1.40;;;;;;;;;;5051465;28;20267;-52
2023/08/09 02:43:30;;;;;;;2.67;1.55;;;;;;;;;;5034021;28;20171;-52
2023/08/09 02:45:56;;;;;;;2.40;1.63;;;;;;;;;;5029986;28;20174;-52
2023/08/09 02:48:22;;;;;;;5.30;1.50;;;;;;;;;;5051977;28;20187;-52
2023/08/09 02:50:49;;;;;;;2.15;1.30;;;;;;;;;;5042983;28;20197;-52
2023/08/09 02:53:15;;;;;;;1.40;1.30;;;;;;;;;;5034147;28;20163;-52
2023/08/09 02:55:42;;;;;;;1.83;1.40;;;;;;;;;;5048395;28;20209;-52
2023/08/09 02:58:08;;;;;;;3.45;1.50;;;;;;;;;;5039129;28;20171;-52
2023/08/09 03:00:34;;;;;;;2.70;1.50;;;;;;;;;;5057237;28;20453;-52
2023/08/09 03:03:00;;;;;;;3.40;1.63;;;;;;;;;;5057199;28;20187;-52
2023/08/09 03:05:26;;;;;;;4.57;1.20;;;;;;;;;;5058752;28;20187;-52
2023/08/09 03:07:52;;;;;;;1.67;1.30;;;;;;;;;;5042198;28;20207;-52
2023/08/09 03:10:18;;;;;;;1.48;1.30;;;;;;;;;;5057825;28;20262;-52
2023/08/09 03:12:44;;;;;;;3.03;1.50;;;;;;;;;;5057529;28;20550;-52
2023/08/09 03:15:10;;;;;;;2.30;1.60;;;;;;;;;;5058080;28;20175;-52
2023/08/09 03:17:37;;;;;;;2.28;1.40;;;;;;;;;;5057293;28;20273;-52
2023/08/09 03:20:09;;;;;;;2.15;1.63;;;;;;;;;;5054815;28;20179;-52
2023/08/09 03:22:35;;;;;;;2.72;1.55;;;;;;;;;;5039708;28;20191;-52
2023/08/09 03:25:01;;;;;;;2.90;1.63;;;;;;;;;;5041598;28;20183;-52
2023/08/09 03:27:27;;;;;;;2.50;1.48;;;;;;;;;;5040597;28;20447;-52
2023/08/09 03:29:53;;;;;;;2.13;1.52;;;;;;;;;;5039835;28;20186;-52
2023/08/09 03:32:19;;;;;;;1.92;1.52;;;;;;;;;;5037797;28;20587;-52
2023/08/09 03:34:45;;;;;;;2.03;1.52;;;;;;;;;;5040384;28;20443;-52
2023/08/09 03:37:11;;;;;;;2.75;1.30;;;;;;;;;;5039928;28;20204;-52
2023/08/09 03:39:37;;;;;;;1.40;1.30;;;;;;;;;;5049697;28;20183;-52
2023/08/09 03:42:03;;;;;;;1.52;1.10;;;;;;;;;;5053675;28;20291;-52
2023/08/09 03:44:29;;;;;;;3.08;1.50;;;;;;;;;;5039909;28;20190;-52
2023/08/09 03:46:56;;;;;;;2.20;1.00;;;;;;;;;;5051036;28;20191;-52
2023/08/09 03:49:22;;;;;;;2.20;1.17;;;;;;;;;;5056702;28;20221;-52
2023/08/09 03:51:48;;;;;;;1.30;1.20;;;;;;;;;;5049290;28;20207;-51
2023/08/09 03:54:13;;;;;;;1.50;1.40;;;;;;;;;;5053137;28;20179;-52
2023/08/09 03:56:40;;;;;;;2.92;1.38;;;;;;;;;;5045792;28;20203;-51
2023/08/09 03:59:07;;;;;;;7.72;1.40;;;;;;;;;;5048401;28;20203;-51
2023/08/09 04:01:33;;;;;;;3.90;1.50;;;;;;;;;;5056354;28;20232;-51
2023/08/09 04:03:59;;;;;;;2.50;1.40;;;;;;;;;;5056639;28;20218;-51
2023/08/09 04:06:25;;;;;;;2.75;1.58;;;;;;;;;;5057025;28;20175;-51
2023/08/09 04:08:51;;;;;;;3.25;1.52;;;;;;;;;;5055639;28;20640;-51
2023/08/09 04:11:17;;;;;;;2.72;1.30;;;;;;;;;;5056108;28;20266;-52
2023/08/09 04:13:43;;;;;;;1.85;1.30;;;;;;;;;;5056521;28;20279;-51
2023/08/09 04:16:09;;;;;;;1.58;1.27;;;;;;;;;;5037710;28;20295;-52
2023/08/09 04:18:35;;;;;;;3.75;1.60;;;;;;;;;;5052934;28;20229;-51
2023/08/09 04:21:02;;;;;;;3.33;1.30;;;;;;;;;;5046431;28;20176;-51
2023/08/09 04:23:28;;;;;;;2.25;1.38;;;;;;;;;;5053281;28;20456;-51
2023/08/09 04:25:57;;;;;;;1.75;1.40;;;;;;;;;;5039793;28;20613;-51
2023/08/09 04:28:23;;;;;;;3.20;1.55;;;;;;;;;;5037080;28;20506;-51
2023/08/09 04:30:49;;;;;;;5.50;3.20;;;;;;;;;;5043166;28;20262;-51
2023/08/09 04:33:15;;;;;;;6.85;4.25;;;;;;;;;;5055609;28;20183;-51
2023/08/09 04:35:43;;;;;;;5.53;3.67;;;;;;;;;;5055514;28;20199;-51
2023/08/09 04:38:09;;;;;;;4.47;2.53;;;;;;;;;;5046555;28;20171;-51
2023/08/09 04:40:36;;;;;;;6.97;4.13;;;;;;;;;;5050506;28;20590;-51
2023/08/09 04:43:02;;;;;;;5.13;3.67;;;;;;;;;;5043069;28;20174;-51
2023/08/09 04:45:28;;;;;;;3.85;3.33;;;;;;;;;;5050934;28;20455;-52
2023/08/09 04:47:54;;;;;;;2.65;2.05;;;;;;;;;;5042969;28;20562;-51
2023/08/09 04:50:21;;;;;;;4.57;3.40;;;;;;;;;;5050568;28;20179;-51
2023/08/09 04:52:47;;;;;;;4.55;3.03;;;;;;;;;;5050550;28;20178;-51
2023/08/09 04:55:13;;;;;;;6.18;3.60;;;;;;;;;;5052530;28;20187;-51
2023/08/09 04:57:39;;;;;;;6.07;3.20;;;;;;;;;;5051677;28;20607;-51
2023/08/09 05:00:08;;;;;;;3.83;2.80;;;;;;;;;;5050221;28;20520;-51
2023/08/09 05:02:36;;;;;;;6.55;2.50;;;;;;;;;;5048447;28;20171;-51
2023/08/09 05:05:02;;;;;;;4.95;2.38;;;;;;;;;;5045965;28;20237;-51
2023/08/09 05:07:28;;;;;;;6.53;2.78;;;;;;;;;;5037518;28;20195;-51
2023/08/09 05:09:54;;;;;;;6.15;2.20;;;;;;;;;;5035454;28;20183;-51
2023/08/09 05:12:20;;;;;;;9.85;2.50;;;;;;;;;;5054818;28;20272;-52
2023/08/09 05:14:46;;;;;;;6.22;2.42;;;;;;;;;;5055725;28;20458;-52
2023/08/09 05:17:12;;;;;;;4.60;2.15;;;;;;;;;;5055862;28;20264;-51
2023/08/09 05:19:38;;;;;;;4.90;2.33;;;;;;;;;;5054979;28;20738;-51
2023/08/09 05:22:04;;;;;;;7.18;2.30;;;;;;;;;;5043343;28;20270;-51
2023/08/09 05:24:30;;;;;;;3.03;1.90;;;;;;;;;;5055475;28;20176;-51
2023/08/09 05:26:56;;;;;;;3.78;2.15;;;;;;;;;;5055662;28;20448;-51
2023/08/09 05:29:22;;;;;;;2.85;1.98;;;;;;;;;;5055319;28;20167;-51
2023/08/09 05:31:48;;;;;;;6.78;2.10;;;;;;;;;;5054590;28;20171;-51
2023/08/09 05:34:14;;;;;;;6.65;1.92;;;;;;;;;;5054817;28;20266;-51
2023/08/09 05:36:39;;;;;;;4.93;2.10;;;;;;;;;;5041774;28;20519;-51
2023/08/09 05:39:07;;;;;;;5.13;2.33;;;;;;;;;;5037164;28;20176;-51
2023/08/09 05:41:33;;;;;;;2.30;1.95;;;;;;;;;;5034899;28;20251;-51
2023/08/09 05:43:59;;;;;;;1.90;1.70;;;;;;;;;;5034875;28;20576;-51
2023/08/09 05:46:25;;;;;;;2.72;1.75;;;;;;;;;;5054643;28;20427;-51
2023/08/09 05:48:51;;;;;;;10.20;6.43;;;;;;;;;;5054643;28;20257;-52
2023/08/09 05:51:17;;;;;;;8.68;4.88;;;;;;;;;;5044203;28;20195;-51
2023/08/09 05:53:43;;;;;;;5.40;3.80;;;;;;;;;;5040797;28;20187;-51
2023/08/09 05:56:09;;;;;;;6.72;3.65;;;;;;;;;;5054382;28;20206;-52
2023/08/09 05:58:35;;;;;;;6.15;3.47;;;;;;;;;;5053994;28;20209;-51
2023/08/09 06:01:04;;;;;;;9.45;3.10;;;;;;;;;;5046597;28;20187;-49
2023/08/09 06:03:30;;;;;;;8.63;3.80;;;;;;;;;;5036124;28;20164;-50
2023/08/09 06:05:57;;;;;;;8.15;3.10;;;;;;;;;;5047031;28;20237;-50
2023/08/09 06:08:23;;;;;;;7.03;3.20;;;;;;;;;;5040295;28;20266;-50
2023/08/09 06:10:49;;;;;;;9.88;2.92;;;;;;;;;;5050191;28;20258;-52
2023/08/09 06:13:15;;;;;;;7.78;2.72;;;;;;;;;;5053746;28;20586;-49
2023/08/09 06:15:41;;;;;;;6.78;2.92;;;;;;;;;;5049205;28;20207;-52
2023/08/09 06:18:07;;;;;;;4.70;2.92;;;;;;;;;;5034432;28;20167;-52
2023/08/09 06:20:33;;;;;;;5.63;2.80;;;;;;;;;;5044464;28;20460;-50
2023/08/09 06:22:59;;;;;;;4.25;3.08;;;;;;;;;;5053244;28;20187;-61
2023/08/09 06:25:25;;;;;;;4.53;2.45;;;;;;;;;;5049329;28;20175;-53
2023/08/09 06:27:54;;;;;;;12.45;2.92;;;;;;;;;;5052830;28;20189;-56
2023/08/09 06:30:20;;;;;;;5.82;2.50;;;;;;;;;;5054042;28;20217;-51
2023/08/09 06:32:48;;;;;;;7.85;2.70;;;;;;;;;;5035895;28;20177;-54
2023/08/09 06:35:14;;;;;;;5.25;2.85;;;;;;;;;;5037020;28;20179;-51
2023/08/09 06:37:40;;;;;;;4.28;2.45;;;;;;;;;;5036889;28;20459;-50
2023/08/09 06:40:09;;;;;;;10.35;2.25;;;;;;;;;;5042508;28;20182;-50
2023/08/09 06:42:35;;;;;;;4.63;2.50;;;;;;;;;;5053012;28;20172;-56
2023/08/09 06:45:02;;;;;;;4.53;2.47;;;;;;;;;;5053680;28;20186;-53
2023/08/09 06:47:28;;;;;;;3.58;2.10;;;;;;;;;;5045642;28;20186;-49
2023/08/09 06:49:54;;;;;;;5.35;2.20;;;;;;;;;;5048361;28;20183;-56
2023/08/09 06:52:20;;;;;;;7.65;2.35;;;;;;;;;;5033720;28;20191;-56
2023/08/09 06:54:46;;;;;;;3.65;2.03;;;;;;;;;;5040041;28;20210;-52
2023/08/09 06:57:12;;;;;;;4.63;2.10;;;;;;;;;;5051930;28;20214;-60
2023/08/09 06:59:38;;;;;;;2.83;2.05;;;;;;;;;;5038934;28;20171;-51
2023/08/09 07:02:04;;;;;;;3.38;1.70;;;;;;;;;;5052799;28;20240;-56
2023/08/09 07:04:30;;;;;;;5.13;1.70;;;;;;;;;;5052451;28;20262;-50
2023/08/09 07:06:56;;;;;;;5.38;1.98;;;;;;;;;;5053439;28;20275;-49
2023/08/09 07:09:22;;;;;;;5.95;2.05;;;;;;;;;;5053631;28;20187;-50
2023/08/09 07:11:48;;;;;;;5.85;1.77;;;;;;;;;;5053287;28;20512;-60
2023/08/09 07:14:14;;;;;;;2.42;1.67;;;;;;;;;;5053503;28;20223;-54
2023/08/09 07:16:40;;;;;;;5.53;1.48;;;;;;;;;;5053912;28;20230;-50
2023/08/09 07:19:06;;;;;;;5.68;1.40;;;;;;;;;;5053658;28;20179;-58
2023/08/09 07:21:32;;;;;;;4.30;1.75;;;;;;;;;;5040895;28;20196;-56
2023/08/09 07:23:58;;;;;;;4.30;1.67;;;;;;;;;;5033684;28;20175;-55
2023/08/09 07:26:24;;;;;;;2.15;1.40;;;;;;;;;;5033616;28;20563;-50
2023/08/09 07:28:50;;;;;;;1.83;1.60;;;;;;;;;;5033674;28;20198;-54
2023/08/09 07:31:18;;;;;;;2.33;1.33;;;;;;;;;;5050237;28;20182;-59
2023/08/09 07:33:44;;;;;;;7.15;1.33;;;;;;;;;;5046228;28;20306;-52
2023/08/09 07:36:10;;;;;;;3.13;1.48;;;;;;;;;;5033801;28;20294;-50
2023/08/09 07:38:36;;;;;;;11.25;1.55;;;;;;;;;;5042124;28;20624;-50
2023/08/09 07:41:03;;;;;;;6.28;1.55;;;;;;;;;;5037930;28;20200;-49
2023/08/09 07:43:28;;;;;;;15.13;2.92;;;;;;;;;;5046045;28;20183;-51
2023/08/09 07:45:54;;;;;;;58.80;16.75;;;;;;;;;;5049439;28;20191;-51
2023/08/09 07:48:20;;;;;;;39.70;10.35;;;;;;;;;;5057753;28;20625;-48
2023/08/09 07:50:46;;;;;;;34.90;9.63;;;;;;;;;;5054800;28;20175;-49
2023/08/09 07:53:12;;;;;;;34.63;9.77;;;;;;;;;;5047148;28;20183;-45
2023/08/09 07:55:39;;;;;;;25.35;6.88;;;;;;;;;;5050627;28;20271;-48
2023/08/09 07:58:05;;;;;;;25.90;6.43;;;;;;;;;;5045147;28;20164;-48
2023/08/09 08:00:31;;;;;;;17.38;5.35;;;;;;;;;;5047811;28;20199;-48
2023/08/09 08:02:57;;;;;;;15.32;4.55;;;;;;;;;;5051398;28;20573;-48
2023/08/09 08:05:23;;;;;;;13.52;3.90;;;;;;;;;;5048307;28;20187;-48
2023/08/09 08:07:49;;;;;;;12.73;4.15;;;;;;;;;;5048380;28;20243;-48
2023/08/09 08:10:15;;;;;;;11.65;3.15;;;;;;;;;;5049474;28;20183;-48
2023/08/09 08:12:42;;;;;;;9.90;2.70;;;;;;;;;;5048766;28;20195;-47
2023/08/09 08:15:08;;;;;;;14.90;3.00;;;;;;;;;;5051155;28;20202;-47
2023/08/09 08:17:34;;;;;;;7.72;2.40;;;;;;;;;;5069829;28;20203;-48
2023/08/09 08:20:01;;;;;;;8.00;2.78;;;;;;;;;;5055088;28;20210;-48
2023/08/09 08:22:26;;;;;;;6.03;2.33;;;;;;;;;;5041255;28;20722;-48
2023/08/09 08:24:52;;;;;;;6.53;2.38;;;;;;;;;;5047908;28;20186;-48
2023/08/09 08:27:18;;;;;;;6.68;2.00;;;;;;;;;;5051820;28;20254;-48
2023/08/09 08:29:44;;;;;;;4.72;1.77;;;;;;;;;;5048907;28;20266;-48
2023/08/09 08:32:10;;;;;;;5.55;2.05;;;;;;;;;;5055999;28;20222;-48
2023/08/09 08:34:37;;;;;;;7.15;2.15;;;;;;;;;;5056793;28;20438;-48
2023/08/09 08:37:04;;;;;;;5.88;2.20;;;;;;;;;;5056273;28;20294;-48
2023/08/09 08:39:32;;;;;;;4.00;1.88;;;;;;;;;;5051651;28;20207;-48
2023/08/09 08:41:58;;;;;;;3.25;1.90;;;;;;;;;;5037231;28;20198;-48
2023/08/09 08:44:25;;;;;;;5.88;2.00;;;;;;;;;;5054772;28;20179;-48
2023/08/09 08:46:51;;;;;;;2.92;1.52;;;;;;;;;;5055137;28;20189;-47
2023/08/09 08:49:20;;;;;;;5.10;1.70;;;;;;;;;;5047203;28;20179;-47
2023/08/09 08:51:47;;;;;;;3.33;1.55;;;;;;;;;;5054489;28;20807;-48
2023/08/09 08:54:15;;;;;;;4.88;1.73;;;;;;;;;;5054347;28;20577;-48
2023/08/09 08:56:41;;;;;;;3.17;1.73;;;;;;;;;;5055825;28;20199;-47
2023/08/09 08:59:07;;;;;;;4.57;1.67;;;;;;;;;;5049086;28;20267;-47
2023/08/09 09:01:33;;;;;;;4.50;1.75;;;;;;;;;;5036880;28;20175;-47
2023/08/09 09:03:59;;;;;;;7.93;1.52;;;;;;;;;;5053100;28;20191;-47
2023/08/09 09:06:25;;;;;;;5.43;1.73;;;;;;;;;;5054013;28;20190;-47
2023/08/09 09:08:59;;;;;;;4.95;1.30;;;;;;;;;;5047325;28;20517;-47
2023/08/09 09:11:25;;;;;;;11.20;1.70;;;;;;;;;;5052468;28;20175;-47
2023/08/09 09:13:51;;;;;;;8.98;1.88;;;;;;;;;;5053864;28;20732;-47
2023/08/09 09:16:18;;;;;;;12.70;2.13;;;;;;;;;;5046958;28;20237;-47
2023/08/09 09:18:46;;;;;;;3.30;1.50;;;;;;;;;;5051485;28;20183;-48
2023/08/09 09:21:14;;;;;;;3.38;1.30;;;;;;;;;;5050191;28;20573;-48
2023/08/09 09:23:40;;;;;;;4.28;1.40;;;;;;;;;;5045839;28;20199;-47
2023/08/09 09:26:19;;;;;;;2.40;1.23;;;;;;;;;;5053288;28;20686;-48
2023/08/09 09:28:47;;;;;;;3.92;1.42;;;;;;;;;;5051629;28;20179;-48
2023/08/09 09:31:14;;;;;;;4.55;1.52;;;;;;;;;;5051025;28;20182;-47
2023/08/09 09:33:45;;;;;;;4.07;1.67;;;;;;;;;;5045144;28;20462;-47
2023/08/09 09:36:11;;;;;;;5.00;1.40;;;;;;;;;;5050185;28;20219;-47
2023/08/09 09:38:38;;;;;;;3.30;1.40;;;;;;;;;;5044492;28;20586;-47
2023/08/09 09:41:05;;;;;;;1.75;1.08;;;;;;;;;;5048633;28;20175;-47
2023/08/09 09:43:32;;;;;;;3.03;1.27;;;;;;;;;;5053221;28;20175;-48
2023/08/09 09:45:58;;;;;;;1.70;1.42;;;;;;;;;;5053561;28;20171;-47
2023/08/09 09:48:24;;;;;;;3.78;1.30;;;;;;;;;;5045763;28;20270;-47
2023/08/09 09:50:50;;;;;;;2.58;1.00;;;;;;;;;;5053287;28;20202;-48
2023/08/09 09:53:17;;;;;;;1.38;0.98;;;;;;;;;;5034250;28;20225;-48
2023/08/09 09:55:43;;;;;;;4.30;1.38;;;;;;;;;;5052677;28;20187;-47
2023/08/09 09:58:12;;;;;;;2.42;1.20;;;;;;;;;;5041137;28;20180;-47
2023/08/09 10:00:38;;;;;;;2.55;1.40;;;;;;;;;;5051073;28;20174;-47
2023/08/09 10:03:04;;;;;;;2.70;1.05;;;;;;;;;;5053891;28;20424;-48
2023/08/09 10:05:35;;;;;;;0.85;0.85;;;;;;;;;;5054724;28;20183;-47
2023/08/09 10:08:01;;;;;;;2.33;1.00;;;;;;;;;;5049041;28;20211;-47
2023/08/09 10:10:27;;;;;;;2.13;0.70;;;;;;;;;;5034885;28;20479;-47
2023/08/09 10:12:54;;;;;;;2.50;0.90;;;;;;;;;;5036289;28;20274;-47
2023/08/09 10:15:24;;;;;;;2.33;0.98;;;;;;;;;;5053257;28;20182;-47
2023/08/09 10:17:55;;;;;;;1.63;0.90;;;;;;;;;;5036137;28;20604;-47
2023/08/09 10:20:21;;;;;;;1.98;1.25;;;;;;;;;;5053559;28;20227;-47
2023/08/09 10:22:49;;;;;;;1.63;1.00;;;;;;;;;;5035576;28;20334;-47
2023/08/09 10:25:15;;;;;;;2.55;0.90;;;;;;;;;;5047157;28;20184;-47
2023/08/09 10:27:53;;;;;;;2.30;1.00;;;;;;;;;;5035155;28;20206;-47
2023/08/09 10:30:25;;;;;;;2.22;1.30;;;;;;;;;;5044033;28;20187;-48
2023/08/09 10:32:51;;;;;;;1.13;1.02;;;;;;;;;;5053846;28;20179;-47
2023/08/09 10:35:19;;;;;;;2.08;0.98;;;;;;;;;;5052225;28;20182;-47
2023/08/09 10:37:45;;;;;;;4.15;0.82;;;;;;;;;;5052169;28;20206;-47
2023/08/09 10:40:12;;;;;;;2.50;0.75;;;;;;;;;;5053055;28;20183;-47
2023/08/09 10:42:38;;;;;;;1.85;0.88;;;;;;;;;;5052391;28;20187;-47
2023/08/09 10:45:04;;;;;;;1.25;1.00;;;;;;;;;;5067019;28;20245;-47
2023/08/09 10:47:31;;;;;;;2.00;0.93;;;;;;;;;;5051789;28;20194;-47
2023/08/09 10:49:59;;;;;;;1.77;0.90;;;;;;;;;;5052745;28;20562;-47
2023/08/09 10:52:36;;;;;;;2.92;0.98;;;;;;;;;;5051807;28;20190;-47
2023/08/09 10:55:28;;;;;;;2.30;0.93;;;;;;;;;;5052330;28;20285;-47
2023/08/09 10:57:55;;;;;;;0.82;0.82;;;;;;;;;;5052739;28;20200;-47
2023/08/09 11:00:22;;;;;;;1.17;0.90;;;;;;;;;;5048297;28;20205;-47
2023/08/09 11:02:51;;;;;;;1.17;0.70;;;;;;;;;;5052029;28;20186;-47
2023/08/09 11:05:18;;;;;;;1.55;1.00;;;;;;;;;;5053056;28;20449;-47
2023/08/09 11:07:44;;;;;;;1.13;0.70;;;;;;;;;;5052223;28;20179;-47
2023/08/09 11:10:12;;;;;;;0.90;0.52;;;;;;;;;;5052827;28;20214;-47
2023/08/09 11:12:41;;;;;;;0.88;0.77;;;;;;;;;;5048218;28;20207;-47
2023/08/09 11:15:08;;;;;;;3.33;1.02;;;;;;;;;;5050397;28;20237;-47
2023/08/09 11:17:35;;;;;;;1.60;0.88;;;;;;;;;;5051545;28;20210;-47
2023/08/09 11:20:01;;;;;;;0.73;0.60;;;;;;;;;;5049293;28;20294;-47
2023/08/09 11:22:27;;;;;;;0.77;0.60;;;;;;;;;;5051696;28;20191;-47
2023/08/09 11:24:55;;;;;;;1.55;0.90;;;;;;;;;;5055948;28;20175;-49
2023/08/09 11:27:21;;;;;;;0.70;0.70;;;;;;;;;;5055848;28;20197;-47
2023/08/09 11:29:47;;;;;;;2.70;0.90;;;;;;;;;;5056843;28;20265;-48
2023/08/09 11:32:13;;;;;;;2.35;0.90;;;;;;;;;;5056609;28;20182;-48
2023/08/09 11:34:39;;;;;;;1.92;0.82;;;;;;;;;;5055987;28;20183;-47
2023/08/09 11:37:09;;;;;;;1.20;0.70;;;;;;;;;;5054003;28;20195;-47
2023/08/09 11:39:35;;;;;;;3.50;0.70;;;;;;;;;;5056315;28;20261;-47
2023/08/09 11:42:00;;;;;;;2.58;0.70;;;;;;;;;;5054985;28;20274;-49
2023/08/09 11:44:36;;;;;;;1.70;0.77;;;;;;;;;;5054726;28;20202;-50
2023/08/09 11:47:03;;;;;;;3.22;0.82;;;;;;;;;;5054887;28;20236;-49
2023/08/09 11:49:30;;;;;;;1.38;0.93;;;;;;;;;;5041611;28;20262;-49
2023/08/09 11:51:56;;;;;;;3.53;1.17;;;;;;;;;;5037589;28;20202;-49
2023/08/09 11:54:23;;;;;;;5.22;1.30;;;;;;;;;;5041705;28;20717;-49
2023/08/09 11:56:49;;;;;;;5.50;1.20;;;;;;;;;;5056342;28;20232;-49
2023/08/09 11:59:19;;;;;;;1.83;0.80;;;;;;;;;;5055916;28;20239;-49
2023/08/09 12:01:46;;;;;;;6.57;1.08;;;;;;;;;;5053716;28;20183;-49
2023/08/09 12:04:14;;;;;;;3.85;1.08;;;;;;;;;;5056484;28;20183;-50
2023/08/09 12:07:06;;;;;;;3.28;0.95;;;;;;;;;;5056867;28;20187;-50
2023/08/09 12:09:34;;;;;;;1.52;0.70;;;;;;;;;;5049816;28;20562;-50
2023/08/09 12:12:07;;;;;;;2.70;0.90;;;;;;;;;;5056418;28;20507;-49
2023/08/09 12:14:34;;;;;;;5.70;0.90;;;;;;;;;;5055853;28;20179;-49
2023/08/09 12:17:00;;;;;;;5.03;0.93;;;;;;;;;;5056512;28;20207;-49
2023/08/09 12:19:26;;;;;;;3.78;0.98;;;;;;;;;;5049547;28;20267;-50
2023/08/09 12:21:52;;;;;;;1.23;0.77;;;;;;;;;;5046134;28;20195;-50
2023/08/09 12:24:18;;;;;;;2.22;0.95;;;;;;;;;;5049439;28;20250;-50
2023/08/09 12:26:44;;;;;;;2.30;0.88;;;;;;;;;;5055898;28;20277;-50
2023/08/09 12:29:11;;;;;;;3.38;0.82;;;;;;;;;;5048384;28;20194;-50
2023/08/09 12:31:37;;;;;;;4.15;0.80;;;;;;;;;;5055919;28;20262;-50
2023/08/09 12:34:04;;;;;;;0.93;0.80;;;;;;;;;;5055837;28;20203;-50
2023/08/09 12:36:30;;;;;;;1.77;0.70;;;;;;;;;;5048000;28;20191;-50
2023/08/09 12:38:57;;;;;;;2.03;0.90;;;;;;;;;;5045529;28;20586;-50
2023/08/09 12:41:23;;;;;;;2.25;0.95;;;;;;;;;;5036548;28;20183;-50
2023/08/09 12:43:48;;;;;;;1.67;1.08;;;;;;;;;;5044553;28;20535;-49
2023/08/09 12:46:14;;;;;;;1.88;0.70;;;;;;;;;;5049152;28;20179;-50
2023/08/09 12:48:40;;;;;;;1.42;0.80;;;;;;;;;;5055966;28;20563;-50
2023/08/09 12:51:06;;;;;;;2.15;0.70;;;;;;;;;;5044546;28;20218;-50
2023/08/09 12:53:32;;;;;;;3.13;0.75;;;;;;;;;;5035851;28;20245;-50
2023/08/09 12:55:58;;;;;;;4.35;1.30;;;;;;;;;;5037515;28;20200;-50
2023/08/09 12:58:24;;;;;;;3.10;0.80;;;;;;;;;;5055592;28;20450;-49
2023/08/09 13:00:51;;;;;;;0.90;0.60;;;;;;;;;;5056062;28;20225;-49
2023/08/09 13:03:17;;;;;;;0.75;0.75;;;;;;;;;;5051454;28;20171;-49
2023/08/09 13:05:43;;;;;;;1.23;0.60;;;;;;;;;;5039449;28;20259;-49
2023/08/09 13:08:10;;;;;;;1.30;0.63;;;;;;;;;;5051575;28;20259;-49
2023/08/09 13:10:36;;;;;;;1.60;0.70;;;;;;;;;;5035638;28;20538;-49
2023/08/09 13:13:02;;;;;;;3.63;0.90;;;;;;;;;;5045372;28;20160;-50
2023/08/09 13:15:28;;;;;;;1.15;0.65;;;;;;;;;;5055857;28;20550;-49
2023/08/09 13:17:54;;;;;;;1.88;0.85;;;;;;;;;;5055390;28;20303;-49
2023/08/09 13:20:20;;;;;;;0.52;0.50;;;;;;;;;;5050825;28;20407;-49
2023/08/09 13:22:46;;;;;;;0.77;0.70;;;;;;;;;;5035316;28;20196;-49
2023/08/09 13:25:13;;;;;;;2.10;0.82;;;;;;;;;;5041902;28;20168;-49
2023/08/09 13:27:39;;;;;;;2.05;0.82;;;;;;;;;;5039449;28;20566;-49
2023/08/09 13:30:06;;;;;;;1.35;1.00;;;;;;;;;;5035657;28;20183;-49
2023/08/09 13:32:33;;;;;;;0.98;0.77;;;;;;;;;;5035159;28;20215;-49
2023/08/09 13:34:59;;;;;;;1.27;0.63;;;;;;;;;;5035778;28;20479;-50
2023/08/09 13:37:25;;;;;;;1.20;0.80;;;;;;;;;;5052975;28;20207;-50
2023/08/09 13:39:51;;;;;;;1.50;0.80;;;;;;;;;;5054138;28;20170;-49
2023/08/09 13:42:18;;;;;;;1.55;0.77;;;;;;;;;;5041963;28;20207;-49
2023/08/09 13:44:44;;;;;;;1.50;1.00;;;;;;;;;;5034944;28;20237;-49
2023/08/09 13:47:13;;;;;;;0.95;0.82;;;;;;;;;;5045485;28;20865;-50
2023/08/09 13:49:39;;;;;;;1.23;0.80;;;;;;;;;;5055050;28;20191;-50
2023/08/09 13:52:07;;;;;;;1.25;0.73;;;;;;;;;;5045551;28;20183;-50
2023/08/09 13:54:33;;;;;;;4.38;0.80;;;;;;;;;;5054670;28;20171;-50
2023/08/09 13:56:59;;;;;;;0.65;0.65;;;;;;;;;;5054009;28;20211;-50
2023/08/09 13:59:25;;;;;;;0.85;0.60;;;;;;;;;;5054677;28;20581;-50
2023/08/09 14:01:51;;;;;;;1.38;0.75;;;;;;;;;;5054415;28;20179;-50
2023/08/09 14:04:17;;;;;;;0.75;0.57;;;;;;;;;;5050975;28;20197;-50
2023/08/09 14:06:43;;;;;;;1.35;0.80;;;;;;;;;;5041655;28;20574;-50
2023/08/09 14:09:09;;;;;;;0.68;0.68;;;;;;;;;;5053019;28;20190;-50
2023/08/09 14:11:36;;;;;;;0.80;0.68;;;;;;;;;;5054493;28;20468;-50
2023/08/09 14:14:03;;;;;;;0.80;0.80;;;;;;;;;;5052292;28;20187;-50
2023/08/09 14:16:29;;;;;;;1.90;0.63;;;;;;;;;;5039986;28;20819;-50
2023/08/09 14:18:55;;;;;;;2.38;0.70;;;;;;;;;;5053505;28;20309;-49
2023/08/09 14:21:21;;;;;;;0.90;0.68;;;;;;;;;;5045988;28;20463;-49
2023/08/09 14:23:48;;;;;;;0.65;0.60;;;;;;;;;;5037854;28;20869;-50
2023/08/09 14:26:14;;;;;;;1.33;0.70;;;;;;;;;;5037756;28;20630;-50
2023/08/09 14:28:40;;;;;;;0.80;0.70;;;;;;;;;;5038931;28;20270;-50
2023/08/09 14:31:06;;;;;;;1.55;0.75;;;;;;;;;;5051880;28;20183;-50
2023/08/09 14:33:32;;;;;;;0.70;0.63;;;;;;;;;;5045378;28;20195;-50
2023/08/09 14:35:58;;;;;;;1.00;0.82;;;;;;;;;;5054232;28;20182;-50
2023/08/09 14:38:24;;;;;;;1.17;0.70;;;;;;;;;;5053544;28;20190;-50
2023/08/09 14:40:50;;;;;;;2.97;0.80;;;;;;;;;;5054467;28;20171;-50